sensor_id;sensor_type;location;lat;lon;timestamp;temperature;humidity
4615;DHT22;2320;51.362;6.946;2022-12-07T00:01:15;6.60;99.90
4615;DHT22;2320;51.362;6.946;2022-12-07T00:03:43;6.60;99.90
4615;DHT22;2320;51.362;6.946;2022-12-07T00:06:10;6.60;99.90
4615;DHT22;2320;51.362;6.946;2022-12-07T00:08:35;6.50;99.90
4615;DHT22;2320;51.362;6.946;2022-12-07T00:11:02;6.60;99.90
4615;DHT22;2320;51.362;6.946;2022-12-07T00:13:27;6.50;99.90
4615;DHT22;2320;51.362;6.946;2022-12-07T00:15:53;6.60;99.90
4615;DHT22;2320;51.362;6.946;2022-12-07T00:18:18;6.60;99.90
4615;DHT22;2320;51.362;6.946;2022-12-07T00:20:44;6.50;99.90
4615;DHT22;2320;51.362;6.946;2022-12-07T00:23:09;6.80;99.90
4615;DHT22;2320;51.362;6.946;2022-12-07T00:25:35;6.70;99.90
4615;DHT22;2320;51.362;6.946;2022-12-07T00:28:00;6.80;99.90
4615;DHT22;2320;51.362;6.946;2022-12-07T00:30:26;6.80;99.90
4615;DHT22;2320;51.362;6.946;2022-12-07T00:32:51;6.60;99.90
4615;DHT22;2320;51.362;6.946;2022-12-07T00:35:16;6.70;99.90
4615;DHT22;2320;51.362;6.946;2022-12-07T00:37:42;6.70;99.90
4615;DHT22;2320;51.362;6.946;2022-12-07T00:40:07;6.70;99.90
4615;DHT22;2320;51.362;6.946;2022-12-07T00:42:33;6.70;99.90
4615;DHT22;2320;51.362;6.946;2022-12-07T00:44:58;6.80;99.90
4615;DHT22;2320;51.362;6.946;2022-12-07T00:47:24;6.70;99.90
4615;DHT22;2320;51.362;6.946;2022-12-07T00:49:49;6.70;99.90
4615;DHT22;2320;51.362;6.946;2022-12-07T00:52:15;6.80;99.90
4615;DHT22;2320;51.362;6.946;2022-12-07T00:54:40;6.80;99.90
4615;DHT22;2320;51.362;6.946;2022-12-07T00:57:06;6.60;99.90
4615;DHT22;2320;51.362;6.946;2022-12-07T00:59:31;6.70;99.90
4615;DHT22;2320;51.362;6.946;2022-12-07T01:01:57;6.80;99.90
4615;DHT22;2320;51.362;6.946;2022-12-07T01:04:22;6.70;99.90
4615;DHT22;2320;51.362;6.946;2022-12-07T01:06:48;6.70;99.90
4615;DHT22;2320;51.362;6.946;2022-12-07T01:09:13;6.70;99.90
4615;DHT22;2320;51.362;6.946;2022-12-07T01:11:39;6.70;99.90
4615;DHT22;2320;51.362;6.946;2022-12-07T01:14:04;6.70;99.90
4615;DHT22;2320;51.362;6.946;2022-12-07T01:16:31;6.80;99.90
4615;DHT22;2320;51.362;6.946;2022-12-07T01:18:57;6.80;99.90
4615;DHT22;2320;51.362;6.946;2022-12-07T01:21:27;6.90;99.90
4615;DHT22;2320;51.362;6.946;2022-12-07T01:23:53;6.90;99.90
4615;DHT22;2320;51.362;6.946;2022-12-07T01:26:20;6.80;99.90
4615;DHT22;2320;51.362;6.946;2022-12-07T01:28:46;6.90;99.90
4615;DHT22;2320;51.362;6.946;2022-12-07T01:31:16;6.90;99.90
4615;DHT22;2320;51.362;6.946;2022-12-07T01:33:42;6.90;99.90
4615;DHT22;2320;51.362;6.946;2022-12-07T01:38:39;6.90;99.90
4615;DHT22;2320;51.362;6.946;2022-12-07T01:41:06;6.90;99.90
4615;DHT22;2320;51.362;6.946;2022-12-07T01:43:32;6.90;99.90
4615;DHT22;2320;51.362;6.946;2022-12-07T01:45:58;6.90;99.90
4615;DHT22;2320;51.362;6.946;2022-12-07T01:48:37;6.80;99.90
4615;DHT22;2320;51.362;6.946;2022-12-07T01:51:04;6.80;99.90
4615;DHT22;2320;51.362;6.946;2022-12-07T01:53:31;6.80;99.90
4615;DHT22;2320;51.362;6.946;2022-12-07T01:55:57;6.80;99.90
4615;DHT22;2320;51.362;6.946;2022-12-07T01:58:23;6.80;99.90
4615;DHT22;2320;51.362;6.946;2022-12-07T02:00:49;6.70;99.90
4615;DHT22;2320;51.362;6.946;2022-12-07T02:03:17;6.80;99.90
4615;DHT22;2320;51.362;6.946;2022-12-07T02:05:44;6.80;99.90
4615;DHT22;2320;51.362;6.946;2022-12-07T02:08:10;6.70;99.90
4615;DHT22;2320;51.362;6.946;2022-12-07T02:10:36;6.70;99.90
4615;DHT22;2320;51.362;6.946;2022-12-07T02:13:04;6.70;99.90
4615;DHT22;2320;51.362;6.946;2022-12-07T02:15:34;6.70;99.90
4615;DHT22;2320;51.362;6.946;2022-12-07T02:18:09;6.80;99.90
4615;DHT22;2320;51.362;6.946;2022-12-07T02:23:21;6.80;99.90
4615;DHT22;2320;51.362;6.946;2022-12-07T02:31:21;6.80;99.90
4615;DHT22;2320;51.362;6.946;2022-12-07T02:33:56;6.60;99.90
4615;DHT22;2320;51.362;6.946;2022-12-07T02:36:27;6.70;99.90
4615;DHT22;2320;51.362;6.946;2022-12-07T02:39:00;6.70;99.90
4615;DHT22;2320;51.362;6.946;2022-12-07T02:43:52;6.70;99.90
4615;DHT22;2320;51.362;6.946;2022-12-07T02:46:23;6.60;99.90
4615;DHT22;2320;51.362;6.946;2022-12-07T02:48:50;6.70;99.90
4615;DHT22;2320;51.362;6.946;2022-12-07T02:51:17;6.70;99.90
4615;DHT22;2320;51.362;6.946;2022-12-07T02:53:43;6.70;99.90
4615;DHT22;2320;51.362;6.946;2022-12-07T03:01:15;6.60;99.90
4615;DHT22;2320;51.362;6.946;2022-12-07T03:03:47;6.60;99.90
4615;DHT22;2320;51.362;6.946;2022-12-07T03:06:22;6.50;99.90
4615;DHT22;2320;51.362;6.946;2022-12-07T03:08:56;6.60;99.90
4615;DHT22;2320;51.362;6.946;2022-12-07T03:11:34;6.60;99.90
4615;DHT22;2320;51.362;6.946;2022-12-07T03:14:10;6.60;99.90
4615;DHT22;2320;51.362;6.946;2022-12-07T03:16:40;6.60;99.90
4615;DHT22;2320;51.362;6.946;2022-12-07T03:19:09;6.60;99.90
4615;DHT22;2320;51.362;6.946;2022-12-07T03:21:52;6.60;99.90
4615;DHT22;2320;51.362;6.946;2022-12-07T03:24:19;6.50;99.90
4615;DHT22;2320;51.362;6.946;2022-12-07T03:26:47;6.60;99.90
4615;DHT22;2320;51.362;6.946;2022-12-07T03:29:17;6.60;99.90
4615;DHT22;2320;51.362;6.946;2022-12-07T03:31:44;6.60;99.90
4615;DHT22;2320;51.362;6.946;2022-12-07T03:34:31;6.60;99.90
4615;DHT22;2320;51.362;6.946;2022-12-07T03:37:06;6.60;99.90
4615;DHT22;2320;51.362;6.946;2022-12-07T03:39:39;6.50;99.90
4615;DHT22;2320;51.362;6.946;2022-12-07T03:42:07;6.50;99.90
4615;DHT22;2320;51.362;6.946;2022-12-07T03:44:34;6.50;99.90
4615;DHT22;2320;51.362;6.946;2022-12-07T03:47:42;6.40;99.90
4615;DHT22;2320;51.362;6.946;2022-12-07T03:49:50;6.40;99.90
4615;DHT22;2320;51.362;6.946;2022-12-07T03:54:47;6.40;99.90
4615;DHT22;2320;51.362;6.946;2022-12-07T03:57:14;6.50;99.90
4615;DHT22;2320;51.362;6.946;2022-12-07T03:59:41;6.40;99.90
4615;DHT22;2320;51.362;6.946;2022-12-07T04:02:07;6.50;99.90
4615;DHT22;2320;51.362;6.946;2022-12-07T04:04:33;6.40;99.90
4615;DHT22;2320;51.362;6.946;2022-12-07T04:06:58;6.50;99.90
4615;DHT22;2320;51.362;6.946;2022-12-07T04:09:24;6.50;99.90
4615;DHT22;2320;51.362;6.946;2022-12-07T04:11:50;6.50;99.90
4615;DHT22;2320;51.362;6.946;2022-12-07T04:14:15;6.50;99.90
4615;DHT22;2320;51.362;6.946;2022-12-07T04:16:44;6.50;99.90
4615;DHT22;2320;51.362;6.946;2022-12-07T04:19:10;6.40;99.90
4615;DHT22;2320;51.362;6.946;2022-12-07T04:21:35;6.40;99.90
4615;DHT22;2320;51.362;6.946;2022-12-07T04:24:01;6.40;99.90
4615;DHT22;2320;51.362;6.946;2022-12-07T04:26:26;6.30;99.90
4615;DHT22;2320;51.362;6.946;2022-12-07T04:28:52;6.20;99.90
4615;DHT22;2320;51.362;6.946;2022-12-07T04:31:17;6.30;99.90
4615;DHT22;2320;51.362;6.946;2022-12-07T04:33:42;6.40;99.90
4615;DHT22;2320;51.362;6.946;2022-12-07T04:36:08;6.30;99.90
4615;DHT22;2320;51.362;6.946;2022-12-07T04:38:33;6.30;99.90
4615;DHT22;2320;51.362;6.946;2022-12-07T04:41:03;6.30;99.90
4615;DHT22;2320;51.362;6.946;2022-12-07T04:43:29;6.30;99.90
4615;DHT22;2320;51.362;6.946;2022-12-07T04:45:54;6.30;99.90
4615;DHT22;2320;51.362;6.946;2022-12-07T04:48:20;6.30;99.90
4615;DHT22;2320;51.362;6.946;2022-12-07T04:50:47;6.20;99.90
4615;DHT22;2320;51.362;6.946;2022-12-07T04:53:13;6.20;99.90
4615;DHT22;2320;51.362;6.946;2022-12-07T04:55:39;6.10;99.90
4615;DHT22;2320;51.362;6.946;2022-12-07T04:58:04;6.10;99.90
4615;DHT22;2320;51.362;6.946;2022-12-07T05:00:30;6.10;99.90
4615;DHT22;2320;51.362;6.946;2022-12-07T05:02:55;6.00;99.90
4615;DHT22;2320;51.362;6.946;2022-12-07T05:05:20;6.00;99.90
4615;DHT22;2320;51.362;6.946;2022-12-07T05:07:46;6.00;99.90
4615;DHT22;2320;51.362;6.946;2022-12-07T05:10:11;6.10;99.90
4615;DHT22;2320;51.362;6.946;2022-12-07T05:12:37;6.10;99.90
4615;DHT22;2320;51.362;6.946;2022-12-07T05:15:02;6.10;99.90
4615;DHT22;2320;51.362;6.946;2022-12-07T05:17:28;6.10;99.90
4615;DHT22;2320;51.362;6.946;2022-12-07T05:19:53;6.00;99.90
4615;DHT22;2320;51.362;6.946;2022-12-07T05:22:19;6.00;99.90
4615;DHT22;2320;51.362;6.946;2022-12-07T05:24:44;6.10;99.90
4615;DHT22;2320;51.362;6.946;2022-12-07T05:27:10;6.10;99.90
4615;DHT22;2320;51.362;6.946;2022-12-07T05:29:35;6.10;99.90
4615;DHT22;2320;51.362;6.946;2022-12-07T05:32:01;6.10;99.90
4615;DHT22;2320;51.362;6.946;2022-12-07T05:34:26;6.10;99.90
4615;DHT22;2320;51.362;6.946;2022-12-07T05:36:51;6.00;99.90
4615;DHT22;2320;51.362;6.946;2022-12-07T05:39:17;6.00;99.90
4615;DHT22;2320;51.362;6.946;2022-12-07T05:41:42;5.90;99.90
4615;DHT22;2320;51.362;6.946;2022-12-07T05:44:27;6.00;99.90
4615;DHT22;2320;51.362;6.946;2022-12-07T05:46:52;5.90;99.90
4615;DHT22;2320;51.362;6.946;2022-12-07T05:49:17;5.80;99.90
4615;DHT22;2320;51.362;6.946;2022-12-07T05:51:43;5.80;99.90
4615;DHT22;2320;51.362;6.946;2022-12-07T05:54:08;5.70;99.90
4615;DHT22;2320;51.362;6.946;2022-12-07T05:56:34;5.80;99.90
4615;DHT22;2320;51.362;6.946;2022-12-07T05:58:59;5.60;99.90
4615;DHT22;2320;51.362;6.946;2022-12-07T06:01:44;5.70;99.90
4615;DHT22;2320;51.362;6.946;2022-12-07T06:04:09;5.70;99.90
4615;DHT22;2320;51.362;6.946;2022-12-07T06:06:35;5.80;99.90
4615;DHT22;2320;51.362;6.946;2022-12-07T06:09:00;5.80;99.90
4615;DHT22;2320;51.362;6.946;2022-12-07T06:11:25;5.80;99.90
4615;DHT22;2320;51.362;6.946;2022-12-07T06:14:10;5.80;99.90
4615;DHT22;2320;51.362;6.946;2022-12-07T06:16:35;5.70;99.90
4615;DHT22;2320;51.362;6.946;2022-12-07T06:19:00;5.70;99.90
4615;DHT22;2320;51.362;6.946;2022-12-07T06:21:26;5.60;99.90
4615;DHT22;2320;51.362;6.946;2022-12-07T06:23:52;5.70;99.90
4615;DHT22;2320;51.362;6.946;2022-12-07T06:26:17;5.70;99.90
4615;DHT22;2320;51.362;6.946;2022-12-07T06:28:43;5.70;99.90
4615;DHT22;2320;51.362;6.946;2022-12-07T06:31:08;5.70;99.90
4615;DHT22;2320;51.362;6.946;2022-12-07T06:33:34;5.80;99.90
4615;DHT22;2320;51.362;6.946;2022-12-07T06:36:00;5.70;99.90
4615;DHT22;2320;51.362;6.946;2022-12-07T06:38:25;5.70;99.90
4615;DHT22;2320;51.362;6.946;2022-12-07T06:40:52;5.70;99.90
4615;DHT22;2320;51.362;6.946;2022-12-07T06:43:17;5.80;99.90
4615;DHT22;2320;51.362;6.946;2022-12-07T06:45:43;5.90;99.90
4615;DHT22;2320;51.362;6.946;2022-12-07T06:48:08;5.60;99.90
4615;DHT22;2320;51.362;6.946;2022-12-07T06:50:34;5.70;99.90
4615;DHT22;2320;51.362;6.946;2022-12-07T06:52:59;5.80;99.90
4615;DHT22;2320;51.362;6.946;2022-12-07T06:55:25;5.80;99.90
4615;DHT22;2320;51.362;6.946;2022-12-07T06:57:50;5.70;99.90
4615;DHT22;2320;51.362;6.946;2022-12-07T07:00:16;5.70;99.90
4615;DHT22;2320;51.362;6.946;2022-12-07T07:02:42;5.50;99.90
4615;DHT22;2320;51.362;6.946;2022-12-07T07:05:07;5.60;99.90
4615;DHT22;2320;51.362;6.946;2022-12-07T07:07:33;5.60;99.90
4615;DHT22;2320;51.362;6.946;2022-12-07T07:09:58;5.70;99.90
4615;DHT22;2320;51.362;6.946;2022-12-07T07:12:24;5.80;99.90
4615;DHT22;2320;51.362;6.946;2022-12-07T07:14:49;5.90;99.90
4615;DHT22;2320;51.362;6.946;2022-12-07T07:17:15;5.80;99.90
4615;DHT22;2320;51.362;6.946;2022-12-07T07:19:40;5.80;99.90
4615;DHT22;2320;51.362;6.946;2022-12-07T07:22:06;5.80;99.90
4615;DHT22;2320;51.362;6.946;2022-12-07T07:24:31;5.80;99.90
4615;DHT22;2320;51.362;6.946;2022-12-07T07:26:57;5.70;99.90
4615;DHT22;2320;51.362;6.946;2022-12-07T07:29:22;5.50;99.90
4615;DHT22;2320;51.362;6.946;2022-12-07T07:31:48;5.40;99.90
4615;DHT22;2320;51.362;6.946;2022-12-07T07:34:13;5.40;99.90
4615;DHT22;2320;51.362;6.946;2022-12-07T07:36:39;5.30;99.90
4615;DHT22;2320;51.362;6.946;2022-12-07T07:39:04;5.40;99.90
4615;DHT22;2320;51.362;6.946;2022-12-07T07:41:30;5.40;99.90
4615;DHT22;2320;51.362;6.946;2022-12-07T07:43:55;5.40;99.90
4615;DHT22;2320;51.362;6.946;2022-12-07T07:46:21;5.40;99.90
4615;DHT22;2320;51.362;6.946;2022-12-07T07:48:46;5.50;99.90
4615;DHT22;2320;51.362;6.946;2022-12-07T07:51:12;5.50;99.90
4615;DHT22;2320;51.362;6.946;2022-12-07T07:53:37;5.40;99.90
4615;DHT22;2320;51.362;6.946;2022-12-07T07:56:03;5.40;99.90
4615;DHT22;2320;51.362;6.946;2022-12-07T07:58:28;5.30;99.90
4615;DHT22;2320;51.362;6.946;2022-12-07T08:00:54;5.30;99.90
4615;DHT22;2320;51.362;6.946;2022-12-07T08:03:19;5.30;99.90
4615;DHT22;2320;51.362;6.946;2022-12-07T08:05:45;5.40;99.90
4615;DHT22;2320;51.362;6.946;2022-12-07T08:08:10;5.50;99.90
4615;DHT22;2320;51.362;6.946;2022-12-07T08:10:36;5.50;99.90
4615;DHT22;2320;51.362;6.946;2022-12-07T08:13:02;5.60;99.90
4615;DHT22;2320;51.362;6.946;2022-12-07T08:15:39;5.80;99.90
4615;DHT22;2320;51.362;6.946;2022-12-07T08:18:04;6.00;99.90
4615;DHT22;2320;51.362;6.946;2022-12-07T08:20:30;6.00;99.90
4615;DHT22;2320;51.362;6.946;2022-12-07T08:22:57;6.10;99.90
4615;DHT22;2320;51.362;6.946;2022-12-07T08:25:22;6.10;99.90
4615;DHT22;2320;51.362;6.946;2022-12-07T08:27:48;6.20;99.90
4615;DHT22;2320;51.362;6.946;2022-12-07T08:30:15;6.30;99.90
4615;DHT22;2320;51.362;6.946;2022-12-07T08:32:41;6.30;99.90
4615;DHT22;2320;51.362;6.946;2022-12-07T08:35:07;6.30;99.90
4615;DHT22;2320;51.362;6.946;2022-12-07T08:37:33;6.50;99.90
4615;DHT22;2320;51.362;6.946;2022-12-07T08:39:58;6.50;99.90
4615;DHT22;2320;51.362;6.946;2022-12-07T08:42:24;6.50;99.90
4615;DHT22;2320;51.362;6.946;2022-12-07T08:44:54;6.40;99.90
4615;DHT22;2320;51.362;6.946;2022-12-07T08:47:20;6.40;99.90
4615;DHT22;2320;51.362;6.946;2022-12-07T08:49:46;6.40;99.90
4615;DHT22;2320;51.362;6.946;2022-12-07T08:52:13;6.40;99.90
4615;DHT22;2320;51.362;6.946;2022-12-07T08:54:38;6.50;99.90
4615;DHT22;2320;51.362;6.946;2022-12-07T08:57:05;6.50;99.90
4615;DHT22;2320;51.362;6.946;2022-12-07T08:59:31;6.60;99.90
4615;DHT22;2320;51.362;6.946;2022-12-07T09:01:58;6.40;99.90
4615;DHT22;2320;51.362;6.946;2022-12-07T09:04:24;6.40;99.90
4615;DHT22;2320;51.362;6.946;2022-12-07T09:06:49;6.50;99.90
4615;DHT22;2320;51.362;6.946;2022-12-07T09:09:15;6.70;99.90
4615;DHT22;2320;51.362;6.946;2022-12-07T09:11:40;6.70;99.90
4615;DHT22;2320;51.362;6.946;2022-12-07T09:14:06;6.60;99.90
4615;DHT22;2320;51.362;6.946;2022-12-07T09:16:31;6.80;99.90
4615;DHT22;2320;51.362;6.946;2022-12-07T09:18:57;6.90;99.90
4615;DHT22;2320;51.362;6.946;2022-12-07T09:21:22;6.80;99.90
4615;DHT22;2320;51.362;6.946;2022-12-07T09:23:48;6.90;99.90
4615;DHT22;2320;51.362;6.946;2022-12-07T09:26:13;6.90;99.90
4615;DHT22;2320;51.362;6.946;2022-12-07T09:28:39;6.80;99.90
4615;DHT22;2320;51.362;6.946;2022-12-07T09:31:04;6.90;99.90
4615;DHT22;2320;51.362;6.946;2022-12-07T09:33:30;6.90;99.90
4615;DHT22;2320;51.362;6.946;2022-12-07T09:35:56;7.00;99.90
4615;DHT22;2320;51.362;6.946;2022-12-07T09:38:21;7.10;99.90
4615;DHT22;2320;51.362;6.946;2022-12-07T09:40:48;7.30;99.90
4615;DHT22;2320;51.362;6.946;2022-12-07T09:43:15;7.40;99.90
4615;DHT22;2320;51.362;6.946;2022-12-07T09:45:41;7.50;99.90
4615;DHT22;2320;51.362;6.946;2022-12-07T09:48:13;7.70;99.90
4615;DHT22;2320;51.362;6.946;2022-12-07T09:50:40;7.80;99.90
4615;DHT22;2320;51.362;6.946;2022-12-07T09:53:08;7.80;99.90
4615;DHT22;2320;51.362;6.946;2022-12-07T09:55:34;7.80;99.90
4615;DHT22;2320;51.362;6.946;2022-12-07T09:58:01;7.80;99.90
4615;DHT22;2320;51.362;6.946;2022-12-07T10:00:26;7.70;99.90
4615;DHT22;2320;51.362;6.946;2022-12-07T10:05:41;7.80;99.90
4615;DHT22;2320;51.362;6.946;2022-12-07T10:08:08;7.90;99.90
4615;DHT22;2320;51.362;6.946;2022-12-07T10:10:35;8.00;99.90
4615;DHT22;2320;51.362;6.946;2022-12-07T10:13:07;8.10;99.90
4615;DHT22;2320;51.362;6.946;2022-12-07T10:18:27;8.30;99.90
4615;DHT22;2320;51.362;6.946;2022-12-07T10:21:00;8.40;99.90
4615;DHT22;2320;51.362;6.946;2022-12-07T10:23:26;8.40;99.90
4615;DHT22;2320;51.362;6.946;2022-12-07T10:25:52;8.20;99.90
4615;DHT22;2320;51.362;6.946;2022-12-07T10:28:20;8.10;99.90
4615;DHT22;2320;51.362;6.946;2022-12-07T10:31:02;8.00;99.90
4615;DHT22;2320;51.362;6.946;2022-12-07T10:33:40;8.10;99.90
4615;DHT22;2320;51.362;6.946;2022-12-07T10:36:21;8.10;99.90
4615;DHT22;2320;51.362;6.946;2022-12-07T10:39:20;8.00;99.90
4615;DHT22;2320;51.362;6.946;2022-12-07T10:41:54;8.10;99.90
4615;DHT22;2320;51.362;6.946;2022-12-07T10:44:22;8.30;99.90
4615;DHT22;2320;51.362;6.946;2022-12-07T10:46:57;8.40;99.90
4615;DHT22;2320;51.362;6.946;2022-12-07T10:52:07;8.60;99.90
4615;DHT22;2320;51.362;6.946;2022-12-07T10:57:09;8.60;99.90
4615;DHT22;2320;51.362;6.946;2022-12-07T10:59:53;8.60;99.90
4615;DHT22;2320;51.362;6.946;2022-12-07T11:04:59;8.60;99.90
4615;DHT22;2320;51.362;6.946;2022-12-07T11:15:03;8.60;99.90
4615;DHT22;2320;51.362;6.946;2022-12-07T11:17:38;8.70;99.90
4615;DHT22;2320;51.362;6.946;2022-12-07T11:22:41;8.80;99.90
4615;DHT22;2320;51.362;6.946;2022-12-07T11:27:43;8.80;99.90
4615;DHT22;2320;51.362;6.946;2022-12-07T11:30:13;8.60;99.90
4615;DHT22;2320;51.362;6.946;2022-12-07T11:32:49;8.60;99.90
4615;DHT22;2320;51.362;6.946;2022-12-07T11:37:59;8.90;99.90
4615;DHT22;2320;51.362;6.946;2022-12-07T11:40:26;8.80;99.90
4615;DHT22;2320;51.362;6.946;2022-12-07T11:47:48;8.70;99.90
4615;DHT22;2320;51.362;6.946;2022-12-07T11:50:21;8.70;99.90
4615;DHT22;2320;51.362;6.946;2022-12-07T11:55:29;8.60;99.90
4615;DHT22;2320;51.362;6.946;2022-12-07T11:58:03;8.60;99.90
4615;DHT22;2320;51.362;6.946;2022-12-07T12:00:29;8.80;99.90
4615;DHT22;2320;51.362;6.946;2022-12-07T12:02:58;8.70;99.90
4615;DHT22;2320;51.362;6.946;2022-12-07T12:05:25;8.70;99.90
4615;DHT22;2320;51.362;6.946;2022-12-07T12:08:38;8.70;99.90
4615;DHT22;2320;51.362;6.946;2022-12-07T12:25:38;8.70;99.90
4615;DHT22;2320;51.362;6.946;2022-12-07T12:28:04;8.70;99.90
4615;DHT22;2320;51.362;6.946;2022-12-07T12:30:31;8.60;99.90
4615;DHT22;2320;51.362;6.946;2022-12-07T12:33:01;8.60;99.90
4615;DHT22;2320;51.362;6.946;2022-12-07T12:37:57;8.60;99.90
4615;DHT22;2320;51.362;6.946;2022-12-07T12:40:41;8.70;99.90
4615;DHT22;2320;51.362;6.946;2022-12-07T12:43:38;8.60;99.90
4615;DHT22;2320;51.362;6.946;2022-12-07T12:46:20;8.60;99.90
4615;DHT22;2320;51.362;6.946;2022-12-07T12:48:38;8.70;99.90
4615;DHT22;2320;51.362;6.946;2022-12-07T12:51:35;8.70;99.90
4615;DHT22;2320;51.362;6.946;2022-12-07T12:53:51;8.70;99.90
4615;DHT22;2320;51.362;6.946;2022-12-07T12:56:26;8.70;99.90
4615;DHT22;2320;51.362;6.946;2022-12-07T13:01:42;8.60;99.90
4615;DHT22;2320;51.362;6.946;2022-12-07T13:04:21;8.60;99.90
4615;DHT22;2320;51.362;6.946;2022-12-07T13:06:48;8.60;99.90
4615;DHT22;2320;51.362;6.946;2022-12-07T13:09:21;8.80;99.90
4615;DHT22;2320;51.362;6.946;2022-12-07T13:11:48;8.70;99.90
4615;DHT22;2320;51.362;6.946;2022-12-07T13:16:58;8.50;99.90
4615;DHT22;2320;51.362;6.946;2022-12-07T13:24:57;8.40;99.90
4615;DHT22;2320;51.362;6.946;2022-12-07T13:27:27;8.50;99.90
4615;DHT22;2320;51.362;6.946;2022-12-07T13:29:52;8.30;99.90
4615;DHT22;2320;51.362;6.946;2022-12-07T13:32:25;8.30;99.90
4615;DHT22;2320;51.362;6.946;2022-12-07T13:34:51;8.30;99.90
4615;DHT22;2320;51.362;6.946;2022-12-07T13:39:47;8.40;99.90
4615;DHT22;2320;51.362;6.946;2022-12-07T13:42:29;8.30;99.90
4615;DHT22;2320;51.362;6.946;2022-12-07T13:44:55;8.40;99.90
4615;DHT22;2320;51.362;6.946;2022-12-07T13:47:40;8.40;99.90
4615;DHT22;2320;51.362;6.946;2022-12-07T13:52:50;8.20;99.90
4615;DHT22;2320;51.362;6.946;2022-12-07T13:55:20;8.20;99.90
4615;DHT22;2320;51.362;6.946;2022-12-07T13:57:47;8.20;99.90
4615;DHT22;2320;51.362;6.946;2022-12-07T14:00:18;8.10;99.90
4615;DHT22;2320;51.362;6.946;2022-12-07T14:02:57;8.00;99.90
4615;DHT22;2320;51.362;6.946;2022-12-07T14:05:28;8.00;99.90
4615;DHT22;2320;51.362;6.946;2022-12-07T14:07:55;7.80;99.90
4615;DHT22;2320;51.362;6.946;2022-12-07T14:10:23;7.70;99.90
4615;DHT22;2320;51.362;6.946;2022-12-07T14:12:49;7.50;99.90
4615;DHT22;2320;51.362;6.946;2022-12-07T14:15:19;7.30;99.90
4615;DHT22;2320;51.362;6.946;2022-12-07T14:17:52;7.40;99.90
4615;DHT22;2320;51.362;6.946;2022-12-07T14:20:30;7.30;99.90
4615;DHT22;2320;51.362;6.946;2022-12-07T14:22:56;7.10;99.90
4615;DHT22;2320;51.362;6.946;2022-12-07T14:25:22;7.00;99.90
4615;DHT22;2320;51.362;6.946;2022-12-07T14:30:17;7.00;99.90
4615;DHT22;2320;51.362;6.946;2022-12-07T14:32:43;6.80;99.90
4615;DHT22;2320;51.362;6.946;2022-12-07T14:35:14;6.60;99.90
4615;DHT22;2320;51.362;6.946;2022-12-07T14:37:40;6.50;99.90
4615;DHT22;2320;51.362;6.946;2022-12-07T14:40:06;6.40;99.90
4615;DHT22;2320;51.362;6.946;2022-12-07T14:42:32;6.40;99.90
4615;DHT22;2320;51.362;6.946;2022-12-07T14:44:58;6.30;99.90
4615;DHT22;2320;51.362;6.946;2022-12-07T14:47:24;6.20;99.90
4615;DHT22;2320;51.362;6.946;2022-12-07T14:49:50;6.20;99.90
4615;DHT22;2320;51.362;6.946;2022-12-07T14:52:26;6.20;99.90
4615;DHT22;2320;51.362;6.946;2022-12-07T14:54:53;6.10;99.90
4615;DHT22;2320;51.362;6.946;2022-12-07T14:57:18;5.90;99.90
4615;DHT22;2320;51.362;6.946;2022-12-07T14:59:43;5.80;99.90
4615;DHT22;2320;51.362;6.946;2022-12-07T15:02:10;5.80;99.90
4615;DHT22;2320;51.362;6.946;2022-12-07T15:04:36;5.70;99.90
4615;DHT22;2320;51.362;6.946;2022-12-07T15:07:02;5.70;99.90
4615;DHT22;2320;51.362;6.946;2022-12-07T15:09:28;5.70;99.90
4615;DHT22;2320;51.362;6.946;2022-12-07T15:11:54;5.70;99.90
4615;DHT22;2320;51.362;6.946;2022-12-07T15:14:19;5.70;99.90
4615;DHT22;2320;51.362;6.946;2022-12-07T15:16:45;5.70;99.90
4615;DHT22;2320;51.362;6.946;2022-12-07T15:19:14;5.50;99.90
4615;DHT22;2320;51.362;6.946;2022-12-07T15:21:40;5.40;99.90
4615;DHT22;2320;51.362;6.946;2022-12-07T15:24:06;5.30;99.90
4615;DHT22;2320;51.362;6.946;2022-12-07T15:26:33;5.20;99.90
4615;DHT22;2320;51.362;6.946;2022-12-07T15:28:58;5.20;99.90
4615;DHT22;2320;51.362;6.946;2022-12-07T15:31:23;5.20;99.90
4615;DHT22;2320;51.362;6.946;2022-12-07T15:33:49;5.10;99.90
4615;DHT22;2320;51.362;6.946;2022-12-07T15:36:19;5.10;99.90
4615;DHT22;2320;51.362;6.946;2022-12-07T15:38:45;5.00;99.90
4615;DHT22;2320;51.362;6.946;2022-12-07T15:41:11;5.00;99.90
4615;DHT22;2320;51.362;6.946;2022-12-07T15:43:36;5.00;99.90
4615;DHT22;2320;51.362;6.946;2022-12-07T15:46:20;5.00;99.90
4615;DHT22;2320;51.362;6.946;2022-12-07T15:48:46;5.00;99.90
4615;DHT22;2320;51.362;6.946;2022-12-07T15:51:11;5.10;99.90
4615;DHT22;2320;51.362;6.946;2022-12-07T15:53:37;5.30;99.90
4615;DHT22;2320;51.362;6.946;2022-12-07T15:56:05;5.30;99.90
4615;DHT22;2320;51.362;6.946;2022-12-07T15:58:31;5.10;99.90
4615;DHT22;2320;51.362;6.946;2022-12-07T16:00:56;5.20;99.90
4615;DHT22;2320;51.362;6.946;2022-12-07T16:03:22;5.30;99.90
4615;DHT22;2320;51.362;6.946;2022-12-07T16:05:50;5.30;99.90
4615;DHT22;2320;51.362;6.946;2022-12-07T16:08:16;5.30;99.90
4615;DHT22;2320;51.362;6.946;2022-12-07T16:10:42;5.40;99.90
4615;DHT22;2320;51.362;6.946;2022-12-07T16:13:11;5.40;99.90
4615;DHT22;2320;51.362;6.946;2022-12-07T16:15:40;5.40;99.90
4615;DHT22;2320;51.362;6.946;2022-12-07T16:18:06;5.60;99.90
4615;DHT22;2320;51.362;6.946;2022-12-07T16:20:31;5.40;99.90
4615;DHT22;2320;51.362;6.946;2022-12-07T16:22:57;5.50;99.90
4615;DHT22;2320;51.362;6.946;2022-12-07T16:25:23;5.70;99.90
4615;DHT22;2320;51.362;6.946;2022-12-07T16:27:48;5.70;99.90
4615;DHT22;2320;51.362;6.946;2022-12-07T16:30:14;5.40;99.90
4615;DHT22;2320;51.362;6.946;2022-12-07T16:32:41;5.30;99.90
4615;DHT22;2320;51.362;6.946;2022-12-07T16:35:07;5.30;99.90
4615;DHT22;2320;51.362;6.946;2022-12-07T16:37:32;5.20;99.90
4615;DHT22;2320;51.362;6.946;2022-12-07T16:39:58;5.30;99.90
4615;DHT22;2320;51.362;6.946;2022-12-07T16:42:23;5.40;99.90
4615;DHT22;2320;51.362;6.946;2022-12-07T16:44:49;5.30;99.90
4615;DHT22;2320;51.362;6.946;2022-12-07T16:47:14;5.50;99.90
4615;DHT22;2320;51.362;6.946;2022-12-07T16:49:40;5.50;99.90
4615;DHT22;2320;51.362;6.946;2022-12-07T16:52:05;5.40;99.90
4615;DHT22;2320;51.362;6.946;2022-12-07T16:54:30;5.50;99.90
4615;DHT22;2320;51.362;6.946;2022-12-07T16:56:58;5.30;99.90
4615;DHT22;2320;51.362;6.946;2022-12-07T16:59:23;5.40;99.90
4615;DHT22;2320;51.362;6.946;2022-12-07T17:01:49;5.30;99.90
4615;DHT22;2320;51.362;6.946;2022-12-07T17:04:14;5.30;99.90
4615;DHT22;2320;51.362;6.946;2022-12-07T17:06:40;5.30;99.90
4615;DHT22;2320;51.362;6.946;2022-12-07T17:09:05;5.30;99.90
4615;DHT22;2320;51.362;6.946;2022-12-07T17:11:34;5.20;99.90
4615;DHT22;2320;51.362;6.946;2022-12-07T17:14:00;5.30;99.90
4615;DHT22;2320;51.362;6.946;2022-12-07T17:16:44;5.30;99.90
4615;DHT22;2320;51.362;6.946;2022-12-07T17:19:11;5.30;99.90
4615;DHT22;2320;51.362;6.946;2022-12-07T17:21:36;5.20;99.90
4615;DHT22;2320;51.362;6.946;2022-12-07T17:24:03;5.30;99.90
4615;DHT22;2320;51.362;6.946;2022-12-07T17:26:29;5.60;99.90
4615;DHT22;2320;51.362;6.946;2022-12-07T17:28:55;5.50;99.90
4615;DHT22;2320;51.362;6.946;2022-12-07T17:31:21;5.50;99.90
4615;DHT22;2320;51.362;6.946;2022-12-07T17:33:47;5.40;99.90
4615;DHT22;2320;51.362;6.946;2022-12-07T17:36:17;5.50;99.90
4615;DHT22;2320;51.362;6.946;2022-12-07T17:38:43;5.60;99.90
4615;DHT22;2320;51.362;6.946;2022-12-07T17:41:13;5.60;99.90
4615;DHT22;2320;51.362;6.946;2022-12-07T17:43:59;5.70;99.90
4615;DHT22;2320;51.362;6.946;2022-12-07T17:46:25;5.70;99.90
4615;DHT22;2320;51.362;6.946;2022-12-07T17:48:53;5.70;99.90
4615;DHT22;2320;51.362;6.946;2022-12-07T17:51:18;5.70;99.90
4615;DHT22;2320;51.362;6.946;2022-12-07T17:54:02;5.70;99.90